sensor_id;sensor_type;location;lat;lon;timestamp;temperature;humidity
8332;DHT22;4203;48.144;14.118;2022-08-20T00:00:59;16.40;99.90
8332;DHT22;4203;48.144;14.118;2022-08-20T00:03:28;16.30;99.90
8332;DHT22;4203;48.144;14.118;2022-08-20T00:06:01;16.30;99.90
8332;DHT22;4203;48.144;14.118;2022-08-20T00:08:28;16.30;99.90
8332;DHT22;4203;48.144;14.118;2022-08-20T00:10:57;16.30;99.90
8332;DHT22;4203;48.144;14.118;2022-08-20T00:13:26;16.20;99.90
8332;DHT22;4203;48.144;14.118;2022-08-20T00:15:54;16.30;99.90
8332;DHT22;4203;48.144;14.118;2022-08-20T00:18:22;16.30;99.90
8332;DHT22;4203;48.144;14.118;2022-08-20T00:20:51;16.20;99.90
8332;DHT22;4203;48.144;14.118;2022-08-20T00:23:21;16.20;99.90
8332;DHT22;4203;48.144;14.118;2022-08-20T00:25:48;16.20;99.90
8332;DHT22;4203;48.144;14.118;2022-08-20T00:28:16;16.20;99.90
8332;DHT22;4203;48.144;14.118;2022-08-20T00:30:44;16.20;99.90
8332;DHT22;4203;48.144;14.118;2022-08-20T00:33:14;16.20;99.90
8332;DHT22;4203;48.144;14.118;2022-08-20T00:35:45;16.10;99.90
8332;DHT22;4203;48.144;14.118;2022-08-20T00:38:13;16.00;99.90
8332;DHT22;4203;48.144;14.118;2022-08-20T00:40:45;16.00;99.90
8332;DHT22;4203;48.144;14.118;2022-08-20T00:43:31;15.90;99.90
8332;DHT22;4203;48.144;14.118;2022-08-20T00:46:00;15.90;99.90
8332;DHT22;4203;48.144;14.118;2022-08-20T00:48:30;15.90;99.90
8332;DHT22;4203;48.144;14.118;2022-08-20T00:51:03;15.80;99.90
8332;DHT22;4203;48.144;14.118;2022-08-20T00:53:32;15.70;99.90
8332;DHT22;4203;48.144;14.118;2022-08-20T00:56:01;15.70;99.90
8332;DHT22;4203;48.144;14.118;2022-08-20T00:58:29;15.70;99.90
8332;DHT22;4203;48.144;14.118;2022-08-20T01:00:56;15.60;99.90
8332;DHT22;4203;48.144;14.118;2022-08-20T01:03:24;15.60;99.90
8332;DHT22;4203;48.144;14.118;2022-08-20T01:05:51;15.60;99.90
8332;DHT22;4203;48.144;14.118;2022-08-20T01:08:20;15.60;99.90
8332;DHT22;4203;48.144;14.118;2022-08-20T01:10:50;15.50;99.90
8332;DHT22;4203;48.144;14.118;2022-08-20T01:13:22;15.60;99.90
8332;DHT22;4203;48.144;14.118;2022-08-20T01:15:53;15.50;99.90
8332;DHT22;4203;48.144;14.118;2022-08-20T01:18:25;15.50;99.90
8332;DHT22;4203;48.144;14.118;2022-08-20T01:20:55;15.50;99.90
8332;DHT22;4203;48.144;14.118;2022-08-20T01:23:30;15.50;99.90
8332;DHT22;4203;48.144;14.118;2022-08-20T01:26:04;15.50;99.90
8332;DHT22;4203;48.144;14.118;2022-08-20T01:28:38;15.50;99.90
8332;DHT22;4203;48.144;14.118;2022-08-20T01:31:08;15.60;99.90
8332;DHT22;4203;48.144;14.118;2022-08-20T01:33:35;15.60;99.90
8332;DHT22;4203;48.144;14.118;2022-08-20T01:36:04;15.70;99.90
8332;DHT22;4203;48.144;14.118;2022-08-20T01:38:32;15.70;99.90
8332;DHT22;4203;48.144;14.118;2022-08-20T01:43:51;15.90;99.90
8332;DHT22;4203;48.144;14.118;2022-08-20T01:46:23;16.10;99.90
8332;DHT22;4203;48.144;14.118;2022-08-20T01:48:54;16.20;99.90
8332;DHT22;4203;48.144;14.118;2022-08-20T01:51:24;16.30;99.90
8332;DHT22;4203;48.144;14.118;2022-08-20T01:53:54;16.40;99.90
8332;DHT22;4203;48.144;14.118;2022-08-20T01:56:26;16.60;99.90
8332;DHT22;4203;48.144;14.118;2022-08-20T01:58:56;16.70;99.90
8332;DHT22;4203;48.144;14.118;2022-08-20T02:01:27;16.90;99.90
8332;DHT22;4203;48.144;14.118;2022-08-20T02:03:55;16.90;99.90
8332;DHT22;4203;48.144;14.118;2022-08-20T02:06:24;17.00;99.90
8332;DHT22;4203;48.144;14.118;2022-08-20T02:08:54;17.00;99.90
8332;DHT22;4203;48.144;14.118;2022-08-20T02:11:23;16.90;99.90
8332;DHT22;4203;48.144;14.118;2022-08-20T02:13:52;16.90;99.90
8332;DHT22;4203;48.144;14.118;2022-08-20T02:16:21;16.90;99.90
8332;DHT22;4203;48.144;14.118;2022-08-20T02:18:51;16.80;99.90
8332;DHT22;4203;48.144;14.118;2022-08-20T02:21:21;16.80;99.90
8332;DHT22;4203;48.144;14.118;2022-08-20T02:23:49;16.90;99.90
8332;DHT22;4203;48.144;14.118;2022-08-20T02:26:16;16.90;99.90
8332;DHT22;4203;48.144;14.118;2022-08-20T02:28:46;17.00;99.90
8332;DHT22;4203;48.144;14.118;2022-08-20T02:31:14;17.10;99.90
8332;DHT22;4203;48.144;14.118;2022-08-20T02:33:41;17.20;99.90
8332;DHT22;4203;48.144;14.118;2022-08-20T02:36:09;17.20;99.90
8332;DHT22;4203;48.144;14.118;2022-08-20T02:38:37;17.30;99.90
8332;DHT22;4203;48.144;14.118;2022-08-20T02:41:04;17.40;99.90
8332;DHT22;4203;48.144;14.118;2022-08-20T02:43:31;17.40;99.90
8332;DHT22;4203;48.144;14.118;2022-08-20T02:46:00;17.40;99.90
8332;DHT22;4203;48.144;14.118;2022-08-20T02:48:28;17.40;99.90
8332;DHT22;4203;48.144;14.118;2022-08-20T02:50:58;17.40;99.90
8332;DHT22;4203;48.144;14.118;2022-08-20T02:53:28;17.30;99.90
8332;DHT22;4203;48.144;14.118;2022-08-20T02:55:56;17.40;99.90
8332;DHT22;4203;48.144;14.118;2022-08-20T02:58:23;17.40;99.90
8332;DHT22;4203;48.144;14.118;2022-08-20T03:00:51;17.40;99.90
8332;DHT22;4203;48.144;14.118;2022-08-20T03:03:20;17.40;99.90
8332;DHT22;4203;48.144;14.118;2022-08-20T03:05:49;17.40;99.90
8332;DHT22;4203;48.144;14.118;2022-08-20T03:08:16;17.40;99.90
8332;DHT22;4203;48.144;14.118;2022-08-20T03:10:45;17.40;99.90
8332;DHT22;4203;48.144;14.118;2022-08-20T03:13:14;17.40;99.90
8332;DHT22;4203;48.144;14.118;2022-08-20T03:15:45;17.40;99.90
8332;DHT22;4203;48.144;14.118;2022-08-20T03:18:13;17.40;99.90
8332;DHT22;4203;48.144;14.118;2022-08-20T03:20:42;17.40;99.90
8332;DHT22;4203;48.144;14.118;2022-08-20T03:23:10;17.40;99.90
8332;DHT22;4203;48.144;14.118;2022-08-20T03:25:37;17.40;99.90
8332;DHT22;4203;48.144;14.118;2022-08-20T03:28:04;17.40;99.90
8332;DHT22;4203;48.144;14.118;2022-08-20T03:30:32;17.40;99.90
8332;DHT22;4203;48.144;14.118;2022-08-20T03:32:59;17.40;99.90
8332;DHT22;4203;48.144;14.118;2022-08-20T03:35:29;17.40;99.90
8332;DHT22;4203;48.144;14.118;2022-08-20T03:37:57;17.40;99.90
8332;DHT22;4203;48.144;14.118;2022-08-20T03:40:28;17.40;99.90
8332;DHT22;4203;48.144;14.118;2022-08-20T03:42:55;17.40;99.90
8332;DHT22;4203;48.144;14.118;2022-08-20T03:45:24;17.40;99.90
8332;DHT22;4203;48.144;14.118;2022-08-20T03:47:52;17.40;99.90
8332;DHT22;4203;48.144;14.118;2022-08-20T03:50:22;17.40;99.90
8332;DHT22;4203;48.144;14.118;2022-08-20T03:52:50;17.40;99.90
8332;DHT22;4203;48.144;14.118;2022-08-20T03:55:19;17.30;99.90
8332;DHT22;4203;48.144;14.118;2022-08-20T03:57:49;17.30;99.90
8332;DHT22;4203;48.144;14.118;2022-08-20T04:00:20;17.30;99.90
8332;DHT22;4203;48.144;14.118;2022-08-20T04:02:48;17.30;99.90
8332;DHT22;4203;48.144;14.118;2022-08-20T04:05:15;17.30;99.90
8332;DHT22;4203;48.144;14.118;2022-08-20T04:07:43;17.30;99.90
8332;DHT22;4203;48.144;14.118;2022-08-20T04:10:11;17.20;99.90
8332;DHT22;4203;48.144;14.118;2022-08-20T04:12:39;17.20;99.90
8332;DHT22;4203;48.144;14.118;2022-08-20T04:15:09;17.20;99.90
8332;DHT22;4203;48.144;14.118;2022-08-20T04:17:38;17.20;99.90
8332;DHT22;4203;48.144;14.118;2022-08-20T04:20:08;17.10;99.90
8332;DHT22;4203;48.144;14.118;2022-08-20T04:22:35;17.10;99.90
8332;DHT22;4203;48.144;14.118;2022-08-20T04:25:03;17.10;99.90
8332;DHT22;4203;48.144;14.118;2022-08-20T04:27:31;17.10;99.90
8332;DHT22;4203;48.144;14.118;2022-08-20T04:30:00;17.10;99.90
8332;DHT22;4203;48.144;14.118;2022-08-20T04:32:28;17.00;99.90
8332;DHT22;4203;48.144;14.118;2022-08-20T04:34:55;17.00;99.90
8332;DHT22;4203;48.144;14.118;2022-08-20T04:37:23;17.00;99.90
8332;DHT22;4203;48.144;14.118;2022-08-20T04:39:50;17.00;99.90
8332;DHT22;4203;48.144;14.118;2022-08-20T04:42:31;17.00;99.90
8332;DHT22;4203;48.144;14.118;2022-08-20T04:45:00;17.00;99.90
8332;DHT22;4203;48.144;14.118;2022-08-20T04:47:27;17.00;99.90
8332;DHT22;4203;48.144;14.118;2022-08-20T04:49:54;17.10;99.90
8332;DHT22;4203;48.144;14.118;2022-08-20T04:52:25;17.10;99.90
8332;DHT22;4203;48.144;14.118;2022-08-20T04:54:52;17.10;99.90
8332;DHT22;4203;48.144;14.118;2022-08-20T04:57:21;17.20;99.90
8332;DHT22;4203;48.144;14.118;2022-08-20T04:59:51;17.20;99.90
8332;DHT22;4203;48.144;14.118;2022-08-20T05:02:20;17.20;99.90
8332;DHT22;4203;48.144;14.118;2022-08-20T05:04:48;17.20;99.90
8332;DHT22;4203;48.144;14.118;2022-08-20T05:07:17;17.30;99.90
8332;DHT22;4203;48.144;14.118;2022-08-20T05:09:45;17.30;99.90
8332;DHT22;4203;48.144;14.118;2022-08-20T05:12:12;17.20;99.90
8332;DHT22;4203;48.144;14.118;2022-08-20T05:14:44;17.20;99.90
8332;DHT22;4203;48.144;14.118;2022-08-20T05:17:11;17.20;99.90
8332;DHT22;4203;48.144;14.118;2022-08-20T05:19:40;17.20;99.90
8332;DHT22;4203;48.144;14.118;2022-08-20T05:22:07;17.30;99.90
8332;DHT22;4203;48.144;14.118;2022-08-20T05:24:35;17.30;99.90
8332;DHT22;4203;48.144;14.118;2022-08-20T05:27:02;17.30;99.90
8332;DHT22;4203;48.144;14.118;2022-08-20T05:29:29;17.30;99.90
8332;DHT22;4203;48.144;14.118;2022-08-20T05:31:56;17.30;99.90
8332;DHT22;4203;48.144;14.118;2022-08-20T05:34:23;17.40;99.90
8332;DHT22;4203;48.144;14.118;2022-08-20T05:36:52;17.40;99.90
8332;DHT22;4203;48.144;14.118;2022-08-20T05:39:21;17.40;99.90
8332;DHT22;4203;48.144;14.118;2022-08-20T05:41:49;17.40;99.90
8332;DHT22;4203;48.144;14.118;2022-08-20T05:44:17;17.40;99.90
8332;DHT22;4203;48.144;14.118;2022-08-20T05:46:46;17.40;99.90
8332;DHT22;4203;48.144;14.118;2022-08-20T05:49:17;17.30;99.90
8332;DHT22;4203;48.144;14.118;2022-08-20T05:51:45;17.30;99.90
8332;DHT22;4203;48.144;14.118;2022-08-20T05:54:14;17.30;99.90
8332;DHT22;4203;48.144;14.118;2022-08-20T05:56:42;17.30;99.90
8332;DHT22;4203;48.144;14.118;2022-08-20T05:59:10;17.30;99.90
8332;DHT22;4203;48.144;14.118;2022-08-20T06:01:40;17.20;99.90
8332;DHT22;4203;48.144;14.118;2022-08-20T06:04:08;17.20;99.90
8332;DHT22;4203;48.144;14.118;2022-08-20T06:06:51;17.20;99.90
8332;DHT22;4203;48.144;14.118;2022-08-20T06:09:21;17.20;99.90
8332;DHT22;4203;48.144;14.118;2022-08-20T06:11:49;17.10;99.90
8332;DHT22;4203;48.144;14.118;2022-08-20T06:14:16;17.20;99.90
8332;DHT22;4203;48.144;14.118;2022-08-20T06:16:45;17.20;99.90
8332;DHT22;4203;48.144;14.118;2022-08-20T06:19:12;17.20;99.90
8332;DHT22;4203;48.144;14.118;2022-08-20T06:21:40;17.20;99.90
8332;DHT22;4203;48.144;14.118;2022-08-20T06:24:07;17.20;99.90
8332;DHT22;4203;48.144;14.118;2022-08-20T06:26:36;17.30;99.90
8332;DHT22;4203;48.144;14.118;2022-08-20T06:29:04;17.30;99.90
8332;DHT22;4203;48.144;14.118;2022-08-20T06:31:32;17.30;99.90
8332;DHT22;4203;48.144;14.118;2022-08-20T06:34:04;17.30;99.90
8332;DHT22;4203;48.144;14.118;2022-08-20T06:36:32;17.30;99.90
8332;DHT22;4203;48.144;14.118;2022-08-20T06:38:59;17.30;99.90
8332;DHT22;4203;48.144;14.118;2022-08-20T06:41:26;17.40;99.90
8332;DHT22;4203;48.144;14.118;2022-08-20T06:43:55;17.40;99.90
8332;DHT22;4203;48.144;14.118;2022-08-20T06:46:22;17.40;99.90
8332;DHT22;4203;48.144;14.118;2022-08-20T06:48:49;17.40;99.90
8332;DHT22;4203;48.144;14.118;2022-08-20T06:51:17;17.30;99.90
8332;DHT22;4203;48.144;14.118;2022-08-20T06:53:45;17.30;99.90
8332;DHT22;4203;48.144;14.118;2022-08-20T06:56:12;17.30;99.90
8332;DHT22;4203;48.144;14.118;2022-08-20T06:58:40;17.20;99.90
8332;DHT22;4203;48.144;14.118;2022-08-20T07:01:10;17.20;99.90
8332;DHT22;4203;48.144;14.118;2022-08-20T07:03:38;17.10;99.90
8332;DHT22;4203;48.144;14.118;2022-08-20T07:06:07;17.10;99.90
8332;DHT22;4203;48.144;14.118;2022-08-20T07:08:34;17.00;99.90
8332;DHT22;4203;48.144;14.118;2022-08-20T07:11:01;17.00;99.90
8332;DHT22;4203;48.144;14.118;2022-08-20T07:13:29;17.00;99.90
8332;DHT22;4203;48.144;14.118;2022-08-20T07:15:57;16.90;99.90
8332;DHT22;4203;48.144;14.118;2022-08-20T07:18:25;16.90;99.90
8332;DHT22;4203;48.144;14.118;2022-08-20T07:20:52;16.80;99.90
8332;DHT22;4203;48.144;14.118;2022-08-20T07:23:21;16.90;99.90
8332;DHT22;4203;48.144;14.118;2022-08-20T07:25:49;16.80;99.90
8332;DHT22;4203;48.144;14.118;2022-08-20T07:28:17;16.80;99.90
8332;DHT22;4203;48.144;14.118;2022-08-20T07:30:45;16.80;99.90
8332;DHT22;4203;48.144;14.118;2022-08-20T07:33:31;16.90;99.90
8332;DHT22;4203;48.144;14.118;2022-08-20T07:36:00;16.90;99.90
8332;DHT22;4203;48.144;14.118;2022-08-20T07:38:30;16.80;99.90
8332;DHT22;4203;48.144;14.118;2022-08-20T07:41:00;16.90;99.90
8332;DHT22;4203;48.144;14.118;2022-08-20T07:43:28;16.90;99.90
8332;DHT22;4203;48.144;14.118;2022-08-20T07:45:56;16.80;99.90
8332;DHT22;4203;48.144;14.118;2022-08-20T07:48:26;16.80;99.90
8332;DHT22;4203;48.144;14.118;2022-08-20T07:50:56;16.80;99.90
8332;DHT22;4203;48.144;14.118;2022-08-20T07:53:24;16.80;99.90
8332;DHT22;4203;48.144;14.118;2022-08-20T07:55:52;16.80;99.90
8332;DHT22;4203;48.144;14.118;2022-08-20T07:58:20;16.80;99.90
8332;DHT22;4203;48.144;14.118;2022-08-20T08:00:48;16.80;99.90
8332;DHT22;4203;48.144;14.118;2022-08-20T08:03:16;16.80;99.90
8332;DHT22;4203;48.144;14.118;2022-08-20T08:05:45;16.80;99.90
8332;DHT22;4203;48.144;14.118;2022-08-20T08:08:23;16.80;99.90
8332;DHT22;4203;48.144;14.118;2022-08-20T08:10:54;16.90;99.90
8332;DHT22;4203;48.144;14.118;2022-08-20T08:13:23;16.90;99.90
8332;DHT22;4203;48.144;14.118;2022-08-20T08:15:54;16.90;99.90
8332;DHT22;4203;48.144;14.118;2022-08-20T08:18:24;17.00;99.90
8332;DHT22;4203;48.144;14.118;2022-08-20T08:20:53;17.00;99.90
8332;DHT22;4203;48.144;14.118;2022-08-20T08:23:22;17.00;99.90
8332;DHT22;4203;48.144;14.118;2022-08-20T08:25:50;17.10;99.90
8332;DHT22;4203;48.144;14.118;2022-08-20T08:28:18;17.20;99.90
8332;DHT22;4203;48.144;14.118;2022-08-20T08:30:47;17.30;99.90
8332;DHT22;4203;48.144;14.118;2022-08-20T08:33:19;17.30;99.90
8332;DHT22;4203;48.144;14.118;2022-08-20T08:35:59;17.50;99.90
8332;DHT22;4203;48.144;14.118;2022-08-20T08:38:30;17.50;99.90
8332;DHT22;4203;48.144;14.118;2022-08-20T08:41:11;17.60;99.90
8332;DHT22;4203;48.144;14.118;2022-08-20T08:43:39;17.70;99.90
8332;DHT22;4203;48.144;14.118;2022-08-20T08:46:09;17.80;99.90
8332;DHT22;4203;48.144;14.118;2022-08-20T08:48:40;17.80;99.90
8332;DHT22;4203;48.144;14.118;2022-08-20T08:51:11;17.90;99.90
8332;DHT22;4203;48.144;14.118;2022-08-20T08:53:44;18.00;99.90
8332;DHT22;4203;48.144;14.118;2022-08-20T08:56:13;18.00;99.90
8332;DHT22;4203;48.144;14.118;2022-08-20T08:58:41;18.10;99.90
8332;DHT22;4203;48.144;14.118;2022-08-20T09:01:13;18.20;99.90
8332;DHT22;4203;48.144;14.118;2022-08-20T09:03:41;18.30;99.90
8332;DHT22;4203;48.144;14.118;2022-08-20T09:06:13;18.30;99.90
8332;DHT22;4203;48.144;14.118;2022-08-20T09:08:46;18.40;99.90
8332;DHT22;4203;48.144;14.118;2022-08-20T09:11:15;18.50;99.90
8332;DHT22;4203;48.144;14.118;2022-08-20T09:13:43;18.60;99.90
8332;DHT22;4203;48.144;14.118;2022-08-20T09:16:11;18.60;99.90
8332;DHT22;4203;48.144;14.118;2022-08-20T09:18:39;18.60;99.90
8332;DHT22;4203;48.144;14.118;2022-08-20T09:21:07;18.60;99.90
8332;DHT22;4203;48.144;14.118;2022-08-20T09:23:35;18.50;99.90
8332;DHT22;4203;48.144;14.118;2022-08-20T09:26:04;18.40;99.90
8332;DHT22;4203;48.144;14.118;2022-08-20T09:28:31;18.40;99.90
8332;DHT22;4203;48.144;14.118;2022-08-20T09:30:59;18.30;99.90
8332;DHT22;4203;48.144;14.118;2022-08-20T09:33:26;18.20;99.90
8332;DHT22;4203;48.144;14.118;2022-08-20T09:35:53;18.10;99.90
8332;DHT22;4203;48.144;14.118;2022-08-20T09:38:20;18.10;99.90
8332;DHT22;4203;48.144;14.118;2022-08-20T09:40:48;18.10;99.90
8332;DHT22;4203;48.144;14.118;2022-08-20T09:43:16;18.10;99.90
8332;DHT22;4203;48.144;14.118;2022-08-20T09:45:43;18.10;99.90
8332;DHT22;4203;48.144;14.118;2022-08-20T09:48:10;18.10;99.90
8332;DHT22;4203;48.144;14.118;2022-08-20T09:50:41;18.20;99.90
8332;DHT22;4203;48.144;14.118;2022-08-20T09:53:10;18.20;99.90
8332;DHT22;4203;48.144;14.118;2022-08-20T09:55:39;18.10;99.90
8332;DHT22;4203;48.144;14.118;2022-08-20T09:58:20;18.20;99.90
8332;DHT22;4203;48.144;14.118;2022-08-20T10:00:48;18.20;99.90
8332;DHT22;4203;48.144;14.118;2022-08-20T10:03:16;18.20;99.90
8332;DHT22;4203;48.144;14.118;2022-08-20T10:05:43;18.20;99.90
8332;DHT22;4203;48.144;14.118;2022-08-20T10:08:11;18.10;99.90
8332;DHT22;4203;48.144;14.118;2022-08-20T10:10:39;18.00;99.90
8332;DHT22;4203;48.144;14.118;2022-08-20T10:13:06;18.00;99.90
8332;DHT22;4203;48.144;14.118;2022-08-20T10:15:35;18.00;99.90
8332;DHT22;4203;48.144;14.118;2022-08-20T10:18:03;17.90;99.90
8332;DHT22;4203;48.144;14.118;2022-08-20T10:20:33;17.80;99.90
8332;DHT22;4203;48.144;14.118;2022-08-20T10:23:01;17.80;99.90
8332;DHT22;4203;48.144;14.118;2022-08-20T10:25:28;17.80;99.90
8332;DHT22;4203;48.144;14.118;2022-08-20T10:27:56;17.80;99.90
8332;DHT22;4203;48.144;14.118;2022-08-20T10:30:23;17.80;99.90
8332;DHT22;4203;48.144;14.118;2022-08-20T10:32:52;17.80;99.90
8332;DHT22;4203;48.144;14.118;2022-08-20T10:35:19;17.90;99.90
8332;DHT22;4203;48.144;14.118;2022-08-20T10:37:46;17.90;99.90
8332;DHT22;4203;48.144;14.118;2022-08-20T10:40:13;17.90;99.90
8332;DHT22;4203;48.144;14.118;2022-08-20T10:42:41;17.90;99.90
8332;DHT22;4203;48.144;14.118;2022-08-20T10:45:09;17.90;99.90
8332;DHT22;4203;48.144;14.118;2022-08-20T10:47:37;17.90;99.90
8332;DHT22;4203;48.144;14.118;2022-08-20T10:50:09;17.80;99.90
8332;DHT22;4203;48.144;14.118;2022-08-20T10:52:37;17.90;99.90
8332;DHT22;4203;48.144;14.118;2022-08-20T10:55:05;17.90;99.90
8332;DHT22;4203;48.144;14.118;2022-08-20T10:57:32;17.90;99.90
8332;DHT22;4203;48.144;14.118;2022-08-20T11:00:00;17.90;99.90
8332;DHT22;4203;48.144;14.118;2022-08-20T11:02:27;17.90;99.90
8332;DHT22;4203;48.144;14.118;2022-08-20T11:04:55;17.90;99.90
8332;DHT22;4203;48.144;14.118;2022-08-20T11:07:27;17.90;99.90
8332;DHT22;4203;48.144;14.118;2022-08-20T11:09:56;17.90;99.90
8332;DHT22;4203;48.144;14.118;2022-08-20T11:12:24;18.00;99.90
8332;DHT22;4203;48.144;14.118;2022-08-20T11:14:52;18.00;99.90
8332;DHT22;4203;48.144;14.118;2022-08-20T11:17:20;18.00;99.90
8332;DHT22;4203;48.144;14.118;2022-08-20T11:19:48;18.00;99.90
8332;DHT22;4203;48.144;14.118;2022-08-20T11:22:15;18.00;99.90
8332;DHT22;4203;48.144;14.118;2022-08-20T11:24:44;18.10;99.90
8332;DHT22;4203;48.144;14.118;2022-08-20T11:27:16;18.10;99.90
8332;DHT22;4203;48.144;14.118;2022-08-20T11:29:45;18.20;99.90
8332;DHT22;4203;48.144;14.118;2022-08-20T11:32:12;18.10;99.90
8332;DHT22;4203;48.144;14.118;2022-08-20T11:34:39;18.20;99.90
8332;DHT22;4203;48.144;14.118;2022-08-20T11:37:07;18.30;99.90
8332;DHT22;4203;48.144;14.118;2022-08-20T11:39:34;18.20;99.90
8332;DHT22;4203;48.144;14.118;2022-08-20T11:42:03;18.30;99.90
8332;DHT22;4203;48.144;14.118;2022-08-20T11:44:30;18.40;99.90
8332;DHT22;4203;48.144;14.118;2022-08-20T11:46:59;18.50;99.90
8332;DHT22;4203;48.144;14.118;2022-08-20T11:49:28;18.50;99.90
8332;DHT22;4203;48.144;14.118;2022-08-20T11:51:55;18.60;99.90
8332;DHT22;4203;48.144;14.118;2022-08-20T11:54:22;18.60;99.90
8332;DHT22;4203;48.144;14.118;2022-08-20T11:56:49;18.60;99.90
8332;DHT22;4203;48.144;14.118;2022-08-20T11:59:19;18.70;99.90
8332;DHT22;4203;48.144;14.118;2022-08-20T12:01:46;18.80;99.90
8332;DHT22;4203;48.144;14.118;2022-08-20T12:04:14;18.90;99.90
8332;DHT22;4203;48.144;14.118;2022-08-20T12:06:41;19.00;99.90
8332;DHT22;4203;48.144;14.118;2022-08-20T12:09:08;19.00;99.90
8332;DHT22;4203;48.144;14.118;2022-08-20T12:11:35;19.00;99.90
8332;DHT22;4203;48.144;14.118;2022-08-20T12:14:02;19.00;99.90
8332;DHT22;4203;48.144;14.118;2022-08-20T12:16:31;19.10;99.90
8332;DHT22;4203;48.144;14.118;2022-08-20T12:18:58;19.30;99.90
8332;DHT22;4203;48.144;14.118;2022-08-20T12:21:25;19.40;99.90
8332;DHT22;4203;48.144;14.118;2022-08-20T12:23:52;19.40;99.90
8332;DHT22;4203;48.144;14.118;2022-08-20T12:26:19;19.40;99.90
8332;DHT22;4203;48.144;14.118;2022-08-20T12:28:47;19.50;99.90
8332;DHT22;4203;48.144;14.118;2022-08-20T12:31:14;19.80;99.90
8332;DHT22;4203;48.144;14.118;2022-08-20T12:33:43;19.90;99.90
8332;DHT22;4203;48.144;14.118;2022-08-20T12:36:10;19.90;99.90
8332;DHT22;4203;48.144;14.118;2022-08-20T12:38:37;19.90;99.90
8332;DHT22;4203;48.144;14.118;2022-08-20T12:41:05;19.70;99.90
8332;DHT22;4203;48.144;14.118;2022-08-20T12:43:32;19.70;99.90
8332;DHT22;4203;48.144;14.118;2022-08-20T12:45:59;19.70;99.90
8332;DHT22;4203;48.144;14.118;2022-08-20T12:48:26;19.70;99.90
8332;DHT22;4203;48.144;14.118;2022-08-20T12:50:55;19.70;99.90
8332;DHT22;4203;48.144;14.118;2022-08-20T12:53:22;19.70;99.90
8332;DHT22;4203;48.144;14.118;2022-08-20T12:55:49;19.70;99.90
8332;DHT22;4203;48.144;14.118;2022-08-20T12:58:16;19.60;99.90
8332;DHT22;4203;48.144;14.118;2022-08-20T13:00:44;19.50;99.90
8332;DHT22;4203;48.144;14.118;2022-08-20T13:03:12;19.50;99.90
8332;DHT22;4203;48.144;14.118;2022-08-20T13:05:40;19.50;99.90
8332;DHT22;4203;48.144;14.118;2022-08-20T13:08:10;19.50;99.90
8332;DHT22;4203;48.144;14.118;2022-08-20T13:10:41;19.70;99.90
8332;DHT22;4203;48.144;14.118;2022-08-20T13:13:10;19.60;99.90
8332;DHT22;4203;48.144;14.118;2022-08-20T13:15:37;19.70;99.90
8332;DHT22;4203;48.144;14.118;2022-08-20T13:18:05;19.70;99.90
8332;DHT22;4203;48.144;14.118;2022-08-20T13:20:33;19.80;99.90
8332;DHT22;4203;48.144;14.118;2022-08-20T13:23:01;19.90;99.90
8332;DHT22;4203;48.144;14.118;2022-08-20T13:25:30;19.90;99.90
8332;DHT22;4203;48.144;14.118;2022-08-20T13:27:58;19.90;99.90
8332;DHT22;4203;48.144;14.118;2022-08-20T13:30:26;20.00;99.90
8332;DHT22;4203;48.144;14.118;2022-08-20T13:32:53;20.10;99.90
8332;DHT22;4203;48.144;14.118;2022-08-20T13:35:21;20.20;99.90
8332;DHT22;4203;48.144;14.118;2022-08-20T13:37:49;20.40;99.90
8332;DHT22;4203;48.144;14.118;2022-08-20T13:40:16;20.50;99.90
8332;DHT22;4203;48.144;14.118;2022-08-20T13:42:45;20.50;99.90
8332;DHT22;4203;48.144;14.118;2022-08-20T13:45:12;20.40;99.90
8332;DHT22;4203;48.144;14.118;2022-08-20T13:47:40;20.50;99.90
8332;DHT22;4203;48.144;14.118;2022-08-20T13:50:10;20.60;99.90
8332;DHT22;4203;48.144;14.118;2022-08-20T13:52:38;20.60;99.90
8332;DHT22;4203;48.144;14.118;2022-08-20T13:55:08;20.60;99.90
8332;DHT22;4203;48.144;14.118;2022-08-20T13:57:35;20.60;99.90
8332;DHT22;4203;48.144;14.118;2022-08-20T14:00:07;20.60;99.90
8332;DHT22;4203;48.144;14.118;2022-08-20T14:02:36;20.60;99.90
8332;DHT22;4203;48.144;14.118;2022-08-20T14:05:04;20.60;99.90
8332;DHT22;4203;48.144;14.118;2022-08-20T14:07:31;20.50;99.90
8332;DHT22;4203;48.144;14.118;2022-08-20T14:10:01;20.30;99.90
8332;DHT22;4203;48.144;14.118;2022-08-20T14:12:29;20.20;99.90
8332;DHT22;4203;48.144;14.118;2022-08-20T14:14:56;20.10;99.90
8332;DHT22;4203;48.144;14.118;2022-08-20T14:17:26;20.10;99.90
8332;DHT22;4203;48.144;14.118;2022-08-20T14:19:55;20.10;99.90
8332;DHT22;4203;48.144;14.118;2022-08-20T14:22:23;20.00;99.90
8332;DHT22;4203;48.144;14.118;2022-08-20T14:24:50;20.00;99.90
8332;DHT22;4203;48.144;14.118;2022-08-20T14:27:19;19.90;99.90
8332;DHT22;4203;48.144;14.118;2022-08-20T14:29:48;19.80;99.90
8332;DHT22;4203;48.144;14.118;2022-08-20T14:32:16;19.70;99.90
8332;DHT22;4203;48.144;14.118;2022-08-20T14:34:45;19.70;99.90
8332;DHT22;4203;48.144;14.118;2022-08-20T14:37:14;19.60;99.90
8332;DHT22;4203;48.144;14.118;2022-08-20T14:39:43;19.40;99.90
8332;DHT22;4203;48.144;14.118;2022-08-20T14:42:11;19.30;99.90
8332;DHT22;4203;48.144;14.118;2022-08-20T14:44:39;19.30;99.90
8332;DHT22;4203;48.144;14.118;2022-08-20T14:47:14;19.20;99.90
8332;DHT22;4203;48.144;14.118;2022-08-20T14:49:41;19.20;99.90
8332;DHT22;4203;48.144;14.118;2022-08-20T14:52:11;19.20;99.90
8332;DHT22;4203;48.144;14.118;2022-08-20T14:54:39;19.20;99.90
8332;DHT22;4203;48.144;14.118;2022-08-20T14:57:07;19.20;99.90
8332;DHT22;4203;48.144;14.118;2022-08-20T14:59:34;19.30;99.90
8332;DHT22;4203;48.144;14.118;2022-08-20T15:02:03;19.40;99.90
8332;DHT22;4203;48.144;14.118;2022-08-20T15:04:31;19.50;99.90
8332;DHT22;4203;48.144;14.118;2022-08-20T15:06:58;19.50;99.90
8332;DHT22;4203;48.144;14.118;2022-08-20T15:09:28;19.60;99.90
8332;DHT22;4203;48.144;14.118;2022-08-20T15:11:55;19.60;99.90
8332;DHT22;4203;48.144;14.118;2022-08-20T15:14:23;19.60;99.90
8332;DHT22;4203;48.144;14.118;2022-08-20T15:16:50;19.60;99.90
8332;DHT22;4203;48.144;14.118;2022-08-20T15:19:18;19.70;99.90
8332;DHT22;4203;48.144;14.118;2022-08-20T15:21:45;19.80;99.90
8332;DHT22;4203;48.144;14.118;2022-08-20T15:24:13;19.70;99.90
8332;DHT22;4203;48.144;14.118;2022-08-20T15:26:42;19.60;99.90
8332;DHT22;4203;48.144;14.118;2022-08-20T15:29:09;19.60;99.90
8332;DHT22;4203;48.144;14.118;2022-08-20T15:31:36;19.60;99.90
8332;DHT22;4203;48.144;14.118;2022-08-20T15:34:03;19.70;99.90
8332;DHT22;4203;48.144;14.118;2022-08-20T15:36:30;19.70;99.90
8332;DHT22;4203;48.144;14.118;2022-08-20T15:38:58;19.80;99.90
8332;DHT22;4203;48.144;14.118;2022-08-20T15:41:25;19.80;99.90
8332;DHT22;4203;48.144;14.118;2022-08-20T15:43:56;19.70;99.90
8332;DHT22;4203;48.144;14.118;2022-08-20T15:46:24;19.70;99.90
8332;DHT22;4203;48.144;14.118;2022-08-20T15:48:51;19.60;99.90
8332;DHT22;4203;48.144;14.118;2022-08-20T15:51:23;19.40;99.90
8332;DHT22;4203;48.144;14.118;2022-08-20T15:53:58;19.40;99.90
8332;DHT22;4203;48.144;14.118;2022-08-20T15:56:49;19.30;99.90